createdAt,value
2023-08-07T00:01:27.848Z,22.23
2023-08-07T00:06:31.565Z,22.25
2023-08-07T00:11:35.590Z,23.07
2023-08-07T00:16:40.720Z,21.93
2023-08-07T00:21:44.374Z,22.80
2023-08-07T00:26:48.007Z,22.42
2023-08-07T00:31:53.074Z,23.00
2023-08-07T00:36:57.170Z,22.38
2023-08-07T00:42:01.051Z,22.67
2023-08-07T00:47:06.908Z,22.58
2023-08-07T00:52:11.765Z,22.70
2023-08-07T00:57:16.850Z,21.69
2023-08-07T01:02:22.151Z,23.19
2023-08-07T01:07:33.874Z,22.89
2023-08-07T01:12:50.766Z,22.98
2023-08-07T01:23:48.310Z,21.86
2023-08-07T01:28:59.815Z,20.76
2023-08-07T01:34:07.475Z,22.49
2023-08-07T01:39:13.358Z,21.62
2023-08-07T01:44:17.237Z,21.73
2023-08-07T01:49:21.525Z,22.49
2023-08-07T01:54:26.637Z,22.68
2023-08-07T01:59:30.324Z,22.43
2023-08-07T02:04:34.116Z,22.73
2023-08-07T02:09:39.424Z,20.71
2023-08-07T02:14:43.232Z,21.71
2023-08-07T02:19:49.286Z,21.31
2023-08-07T02:24:54.500Z,22.07
2023-08-07T02:29:58.181Z,21.83
2023-08-07T02:35:01.864Z,22.13
2023-08-07T02:40:08.709Z,22.26
2023-08-07T02:45:12.436Z,22.16
2023-08-07T02:50:16.517Z,22.09
2023-08-07T02:55:21.998Z,21.91
2023-08-07T03:00:28.944Z,21.04
2023-08-07T03:05:32.750Z,21.78
2023-08-07T03:10:38.015Z,21.25
2023-08-07T03:15:43.275Z,20.51
2023-08-07T03:20:47.648Z,21.26
2023-08-07T03:25:56.739Z,21.69
2023-08-07T03:31:06.535Z,21.20
2023-08-07T03:36:12.779Z,20.97
2023-08-07T03:41:21.538Z,20.35
2023-08-07T03:46:25.608Z,22.08
2023-08-07T03:51:30.857Z,21.29
2023-08-07T03:56:37.853Z,20.74
2023-08-07T04:01:45.704Z,20.33
2023-08-07T04:06:49.745Z,21.14
2023-08-07T04:11:55.193Z,20.75
2023-08-07T04:16:59.654Z,20.98
2023-08-07T04:22:03.356Z,21.16
2023-08-07T04:27:09.485Z,22.17
2023-08-07T04:32:13.827Z,21.55
2023-08-07T04:37:18.389Z,21.88
2023-08-07T05:51:18.146Z,22.39
2023-08-07T05:56:22.300Z,22.35
2023-08-07T06:01:31.007Z,21.77
2023-08-07T06:06:37.089Z,22.33
2023-08-07T06:11:40.874Z,20.24
2023-08-07T06:16:44.724Z,21.54
2023-08-07T06:21:52.919Z,22.21
2023-08-07T06:26:57.230Z,22.03
2023-08-07T06:32:01.429Z,22.11
2023-08-07T06:37:08.031Z,21.91
2023-08-07T06:42:11.795Z,21.31
2023-08-07T06:47:17.400Z,21.60
2023-08-07T06:52:22.769Z,21.72
2023-08-07T06:57:27.854Z,22.02
2023-08-07T07:02:31.714Z,23.12
2023-08-07T07:07:40.258Z,23.17
2023-08-07T07:12:44.176Z,21.35
2023-08-07T07:17:47.866Z,22.71
2023-08-07T07:22:53.422Z,23.11
2023-08-07T07:27:57.146Z,22.24
2023-08-07T07:33:01.338Z,22.73
2023-08-07T07:38:06.331Z,22.58
2023-08-07T07:43:10.226Z,23.53
2023-08-07T07:48:13.956Z,23.26
2023-08-07T07:53:19.125Z,23.50
2023-08-07T07:58:23.553Z,22.98
2023-08-07T08:03:27.600Z,23.24
2023-08-07T08:08:32.749Z,24.29
2023-08-07T08:13:39.960Z,23.18
2023-08-07T08:18:43.779Z,25.21
2023-08-07T08:23:48.975Z,23.89
2023-08-07T08:28:52.667Z,23.47
2023-08-07T08:33:56.559Z,24.58
2023-08-07T08:39:02.622Z,24.83
2023-08-07T08:44:08.218Z,24.26
2023-08-07T08:49:13.101Z,23.91
2023-08-07T08:54:18.533Z,25.49
2023-08-07T08:59:22.848Z,25.09
2023-08-07T09:04:26.900Z,24.79
2023-08-07T09:09:32.228Z,22.00
2023-08-07T09:14:38.978Z,21.79
2023-08-07T09:19:42.547Z,21.55
2023-08-07T09:24:48.023Z,22.68
2023-08-07T09:29:52.030Z,20.83
2023-08-07T09:35:04.866Z,23.63
2023-08-07T09:40:13.652Z,24.07
2023-08-07T09:45:27.850Z,23.97
2023-08-07T09:50:54.239Z,25.00
2023-08-07T09:56:05.662Z,24.86
2023-08-07T10:01:16.256Z,24.47
2023-08-07T10:06:41.779Z,22.61
2023-08-07T10:11:51.573Z,22.59
2023-08-07T10:17:04.939Z,23.57
2023-08-07T10:22:09.108Z,24.02
2023-08-07T10:27:23.041Z,22.18
2023-08-07T10:32:27.872Z,24.46
2023-08-07T10:37:43.520Z,24.71
2023-08-07T10:43:16.157Z,24.28
2023-08-07T10:48:22.818Z,23.70
2023-08-07T10:53:34.660Z,23.20
2023-08-07T10:58:42.494Z,25.16
2023-08-07T11:03:47.442Z,25.52
2023-08-07T11:08:52.022Z,24.98
2023-08-07T11:13:57.401Z,25.28
2023-08-07T11:19:04.178Z,24.93
2023-08-07T11:24:07.905Z,23.71
2023-08-07T11:29:13.493Z,25.28
2023-08-07T11:34:19.402Z,25.13
2023-08-07T11:39:26.175Z,23.54
2023-08-07T11:44:35.456Z,23.87
2023-08-07T11:49:39.392Z,23.52
2023-08-07T11:54:43.146Z,24.98
2023-08-07T11:59:52.615Z,23.66
2023-08-07T12:05:00.956Z,23.40
2023-08-07T12:10:06.095Z,24.56
2023-08-07T12:15:12.426Z,24.42
2023-08-07T12:20:18.565Z,24.53
2023-08-07T12:25:22.157Z,23.86
2023-08-07T12:30:27.077Z,23.04
2023-08-07T12:35:30.650Z,21.86
2023-08-07T12:40:36.492Z,23.72
2023-08-07T12:50:48.453Z,23.82
2023-08-07T12:55:52.171Z,22.88
2023-08-07T13:00:57.257Z,24.53
2023-08-07T13:06:01.031Z,23.26
2023-08-07T13:11:04.746Z,24.41
2023-08-07T13:16:10.172Z,24.83
2023-08-07T13:21:16.509Z,23.82
2023-08-07T13:26:20.138Z,24.15
2023-08-07T13:31:27.083Z,25.28
2023-08-07T13:36:30.656Z,23.18
2023-08-07T13:41:34.770Z,24.85
2023-08-07T13:46:39.846Z,23.73
2023-08-07T13:51:43.662Z,25.49
2023-08-07T13:56:47.187Z,25.41
2023-08-07T14:01:56.166Z,23.80
2023-08-07T14:07:00.961Z,23.93
2023-08-07T14:12:04.985Z,24.78
2023-08-07T14:17:09.968Z,25.05
2023-08-07T14:22:13.955Z,24.19
2023-08-07T14:27:17.930Z,25.09
2023-08-07T14:32:23.691Z,23.50
2023-08-07T14:37:27.527Z,24.64
2023-08-07T14:42:31.086Z,25.72
2023-08-07T14:47:36.274Z,24.57
2023-08-07T14:52:40.025Z,24.80
2023-08-07T14:57:43.597Z,24.62
2023-08-07T15:02:48.762Z,25.16
2023-08-07T15:07:52.357Z,26.06
2023-08-07T15:12:56.866Z,25.37
2023-08-07T15:18:04.195Z,24.82
2023-08-07T15:23:08.203Z,24.41
2023-08-07T15:28:11.776Z,24.68
2023-08-07T15:33:16.672Z,24.00
2023-08-07T15:38:20.290Z,23.43
2023-08-07T15:43:24.112Z,23.45
2023-08-07T15:48:30.407Z,22.71
2023-08-07T15:53:33.906Z,23.65
2023-08-07T15:58:37.407Z,24.40
2023-08-07T16:03:42.428Z,23.11
2023-08-07T16:08:46.175Z,23.69
2023-08-07T16:13:50.536Z,24.03
2023-08-07T16:18:55.716Z,24.67
2023-08-07T16:23:59.383Z,23.73
2023-08-07T16:29:03.222Z,23.03
2023-08-07T16:34:08.265Z,23.20
2023-08-07T16:39:11.902Z,22.82
2023-08-07T16:44:16.796Z,23.06
2023-08-07T16:49:21.910Z,23.25
2023-08-07T16:54:25.597Z,23.44
2023-08-07T16:59:30.422Z,24.27
2023-08-07T17:04:36.474Z,23.29
2023-08-07T17:09:41.451Z,22.06
2023-08-07T17:18:35.661Z,20.42
2023-08-07T17:22:03.560Z,21.70
2023-08-07T17:27:07.785Z,22.08
2023-08-07T17:32:11.522Z,22.19
2023-08-07T17:37:16.639Z,22.20
2023-08-07T17:42:20.352Z,21.92
2023-08-07T17:47:24.390Z,21.10
2023-08-07T17:52:33.003Z,21.01
2023-08-07T17:57:36.744Z,21.83
2023-08-07T18:02:40.514Z,20.83
2023-08-07T18:07:45.650Z,21.67
2023-08-07T18:12:49.455Z,22.16
2023-08-07T18:17:53.143Z,22.22
2023-08-07T18:22:58.154Z,21.43
2023-08-07T18:28:01.853Z,22.24
2023-08-07T18:33:05.698Z,21.07
2023-08-07T18:38:11.166Z,21.37
2023-08-07T18:43:14.874Z,21.35
2023-08-07T18:48:19.741Z,21.68
2023-08-07T18:53:25.271Z,21.63
2023-08-07T18:58:29.128Z,21.74
2023-08-07T19:03:33.661Z,21.17
2023-08-07T19:08:40.914Z,20.88
2023-08-07T19:13:44.636Z,21.14
2023-08-07T19:18:48.293Z,21.29
2023-08-07T19:23:53.340Z,20.68
2023-08-07T19:28:57.569Z,21.57
2023-08-07T19:34:01.315Z,20.76
2023-08-07T19:39:06.602Z,21.60
2023-08-07T19:44:10.654Z,21.37
2023-08-07T19:49:14.759Z,20.90
2023-08-07T19:54:20.324Z,20.77
2023-08-07T19:59:25.105Z,21.28
2023-08-07T20:04:38.482Z,21.23
2023-08-07T20:09:44.362Z,21.22
2023-08-07T20:14:48.132Z,20.27
2023-08-07T20:19:51.934Z,20.73
2023-08-07T20:25:06.884Z,19.69
2023-08-07T20:30:11.700Z,20.51
2023-08-07T20:35:15.546Z,20.99
2023-08-07T20:40:22.170Z,20.43
2023-08-07T20:45:28.450Z,20.86
2023-08-07T20:50:32.893Z,19.82
2023-08-07T20:55:38.866Z,20.43
2023-08-07T21:00:48.134Z,20.43
2023-08-07T21:05:52.806Z,20.66
2023-08-07T21:10:58.398Z,20.88
2023-08-07T21:16:03.131Z,21.26
2023-08-07T21:21:07.080Z,21.37
2023-08-07T21:26:12.336Z,20.79
2023-08-07T21:31:16.340Z,21.11
2023-08-07T21:36:20.128Z,20.72
2023-08-07T21:41:25.511Z,21.03
2023-08-07T21:46:29.915Z,20.39
2023-08-07T21:51:34.233Z,20.32
2023-08-07T21:56:43.181Z,20.58
2023-08-07T22:01:47.548Z,20.84
2023-08-07T22:12:31.139Z,20.34
2023-08-07T22:17:34.877Z,20.70
2023-08-07T22:22:38.715Z,20.45
2023-08-07T22:27:43.656Z,20.32
2023-08-07T22:32:47.343Z,20.59
2023-08-07T22:37:50.983Z,20.49
2023-08-07T22:42:56.077Z,20.60
2023-08-07T22:47:59.732Z,20.48
2023-08-07T22:53:03.509Z,20.30
2023-08-07T22:58:11.573Z,20.14
2023-08-07T23:03:15.568Z,20.34
2023-08-07T23:08:19.236Z,19.93
2023-08-07T23:13:24.014Z,20.27
2023-08-07T23:18:28.728Z,20.02
2023-08-07T23:23:32.429Z,20.35
2023-08-07T23:28:37.705Z,19.74
2023-08-07T23:33:41.350Z,20.11
2023-08-07T23:38:44.971Z,20.52
2023-08-07T23:43:49.860Z,20.08
2023-08-07T23:48:53.408Z,20.03
2023-08-07T23:53:57.009Z,20.16
2023-08-07T23:59:02.031Z,20.29
